PASV/SVW METAR and TAF weather

Enter ICAO airport designator
Station Type Date Time Source
PASV METAR 2019/07/18 10:55 UTC NOAA

PASV 181055Z AUTO 33010KT 290V350 10SM BKN030 11/08 A2989 RMK AO2 SLP116 T01140083


Station Type Date Time Source
PASV Decoded METAR 2019/07/18 10:55 UTC NOAA

Sparrevohn Airways Facilities Sector, AK, United States (PASV) 61-06N 155-34W
Jul 18, 2019 - 06:55 AM EDT / 2019.07.18 1055 UTC
Wind: from the NNW (330 degrees) at 12 MPH (10 KT) (direction variable):0
Visibility: 10 mile(s):0
Sky conditions: mostly cloudy
Temperature: 52.5 F (11.4 C)
Dew Point: 46.9 F (8.3 C)
Relative Humidity: 81%
Pressure (altimeter): 29.89 in. Hg (1012 hPa)
ob: PASV 181055Z AUTO 33010KT 290V350 10SM BKN030 11/08 A2989 RMK AO2 SLP116 T01140083
cycle: 11

Station Type Date Time Source
PASV TAF 2012/01/12 14:57 UTC NOAA

TAF
AMD PASV 1214/1320 33010G15KT 4800 -SN BLSN SCT003 SCT110 QNH2984INS
BECMG 1221/1222 VRB06KT 9999 NSW FEW010 SCT110 QNH3000INS LIMITED METWATCH TM25/1300Z TM37/1315Z
AMD 121453

Example: see airport list